Time;durP1;ratioP1;P1;durP2;ratioP2;P2;SDS_P1;SDS_P2;PMS_P1;PMS_P2;Temp;Humidity;BMP_temperature;BMP_pressure;BME280_temperature;BME280_humidity;BME280_pressure;Samples;Min_cycle;Max_cycle;Signal;HPM_P1;HPM_P2
2021/01/24 00:00:47;;;;;;;9.85;8.85;;;3.70;99.90;;;;;;5073371;28;20245;-47
2021/01/24 00:03:14;;;;;;;9.88;8.43;;;3.70;99.90;;;;;;5073418;28;20203;-46
2021/01/24 00:05:43;;;;;;;13.40;10.32;;;3.60;99.90;;;;;;5073058;28;20207;-46
2021/01/24 00:08:11;;;;;;;9.48;8.40;;;3.60;99.90;;;;;;5073423;28;20223;-46
2021/01/24 00:10:38;;;;;;;10.48;9.15;;;3.60;99.90;;;;;;5073431;28;20277;-48
2021/01/24 00:13:06;;;;;;;8.48;7.63;;;3.60;99.90;;;;;;5073144;28;20261;-44
2021/01/24 00:15:33;;;;;;;9.10;8.00;;;3.50;99.90;;;;;;5073227;28;20243;-44
2021/01/24 00:18:00;;;;;;;9.98;8.90;;;3.40;99.90;;;;;;5073212;28;20241;-45
2021/01/24 00:20:27;;;;;;;8.20;7.40;;;3.40;99.90;;;;;;5072998;28;20757;-44
2021/01/24 00:22:55;;;;;;;9.65;8.75;;;3.30;99.90;;;;;;5073161;28;20215;-45
2021/01/24 00:25:22;;;;;;;8.90;6.80;;;3.30;99.90;;;;;;5073182;28;20290;-43
2021/01/24 00:27:49;;;;;;;8.55;7.40;;;3.40;99.90;;;;;;5073036;28;20207;-44
2021/01/24 00:30:19;;;;;;;8.23;6.47;;;3.50;99.90;;;;;;5072959;28;20298;-44
2021/01/24 00:32:46;;;;;;;7.20;6.50;;;3.60;99.90;;;;;;5072725;28;20303;-42
2021/01/24 00:35:14;;;;;;;7.03;6.32;;;3.60;99.90;;;;;;5072860;28;20238;-43
2021/01/24 00:37:41;;;;;;;6.30;5.78;;;3.70;99.90;;;;;;5072785;28;20207;-46
2021/01/24 00:40:09;;;;;;;9.50;6.03;;;3.60;99.90;;;;;;5072801;28;20293;-45
2021/01/24 00:42:37;;;;;;;6.07;5.47;;;3.60;99.90;;;;;;5072556;28;20290;-44
2021/01/24 00:45:05;;;;;;;5.50;5.00;;;3.50;99.90;;;;;;5072553;28;20211;-43
2021/01/24 00:47:34;;;;;;;6.20;5.60;;;3.50;99.90;;;;;;5072284;28;20307;-46
2021/01/24 00:50:02;;;;;;;5.68;5.07;;;3.40;99.90;;;;;;5072709;28;20223;-44
2021/01/24 00:52:29;;;;;;;6.13;5.45;;;3.40;99.90;;;;;;5072549;28;20203;-43
2021/01/24 00:54:56;;;;;;;5.75;4.93;;;3.40;99.90;;;;;;5072272;28;20302;-45
2021/01/24 00:57:23;;;;;;;5.50;4.45;;;3.40;99.90;;;;;;5072305;28;20614;-42
2021/01/24 00:59:50;;;;;;;5.40;4.90;;;3.40;99.90;;;;;;5072094;28;20314;-45
2021/01/24 01:02:17;;;;;;;7.63;5.22;;;3.30;99.90;;;;;;5072477;28;20227;-45
2021/01/24 01:04:45;;;;;;;5.35;4.85;;;3.30;99.90;;;;;;5072134;28;20651;-45
2021/01/24 01:07:12;;;;;;;7.10;5.03;;;3.20;99.90;;;;;;5072283;28;20203;-44
2021/01/24 01:09:39;;;;;;;5.53;4.80;;;3.20;99.90;;;;;;5072051;28;20211;-43
2021/01/24 01:12:07;;;;;;;6.25;5.20;;;3.30;99.90;;;;;;5071911;28;20298;-43
2021/01/24 01:14:34;;;;;;;5.97;4.72;;;3.30;99.90;;;;;;5072176;28;20271;-42
2021/01/24 01:17:01;;;;;;;4.88;3.50;;;3.30;99.90;;;;;;5072137;28;20289;-43
2021/01/24 01:19:28;;;;;;;5.55;4.55;;;3.30;99.90;;;;;;5072524;28;20559;-44
2021/01/24 01:21:56;;;;;;;6.00;3.80;;;3.30;99.90;;;;;;5071869;28;20245;-44
2021/01/24 01:24:23;;;;;;;4.07;3.78;;;3.30;99.90;;;;;;5072064;28;20629;-44
2021/01/24 01:26:50;;;;;;;3.78;3.30;;;3.40;99.90;;;;;;5071696;28;20246;-45
2021/01/24 01:29:17;;;;;;;2.40;2.20;;;3.40;99.90;;;;;;5072022;28;20218;-44
2021/01/24 01:31:44;;;;;;;2.20;2.00;;;3.50;99.90;;;;;;5071977;28;20341;-44
2021/01/24 01:34:12;;;;;;;2.03;1.92;;;3.50;99.90;;;;;;5071874;28;20207;-43
2021/01/24 01:36:39;;;;;;;2.95;1.90;;;3.40;99.90;;;;;;5071685;28;20222;-43
2021/01/24 01:39:07;;;;;;;1.92;1.50;;;3.40;99.90;;;;;;5071761;28;20231;-45
2021/01/24 01:41:35;;;;;;;2.13;1.90;;;3.40;99.90;;;;;;5071591;28;20709;-44
2021/01/24 01:44:03;;;;;;;2.03;1.77;;;3.30;99.90;;;;;;5071869;28;20298;-45
2021/01/24 01:46:30;;;;;;;1.92;1.83;;;3.30;99.90;;;;;;5071831;28;20766;-44
2021/01/24 01:48:59;;;;;;;2.75;1.85;;;3.30;99.90;;;;;;5071432;28;20211;-45
2021/01/24 01:51:26;;;;;;;2.00;1.90;;;3.30;99.90;;;;;;5071755;28;20212;-45
2021/01/24 01:53:54;;;;;;;2.08;1.88;;;3.40;99.90;;;;;;5071495;28;20290;-45
2021/01/24 01:56:22;;;;;;;1.90;1.70;;;3.50;99.90;;;;;;5071775;28;20409;-44
2021/01/24 01:58:49;;;;;;;1.90;1.80;;;3.50;99.90;;;;;;5071826;28;20294;-44
2021/01/24 02:01:26;;;;;;;2.15;2.05;;;3.50;99.90;;;;;;5075960;28;20318;-44
2021/01/24 02:04:02;;;;;;;2.10;1.90;;;3.50;99.90;;;;;;5075675;28;20572;-45
2021/01/24 02:06:36;;;;;;;2.13;2.03;;;3.50;99.90;;;;;;5075438;28;20578;-43
2021/01/24 02:09:09;;;;;;;2.15;2.00;;;3.50;99.90;;;;;;5075689;28;20303;-44
2021/01/24 02:11:45;;;;;;;6.22;3.70;;;3.40;99.90;;;;;;5075722;28;20243;-44
2021/01/24 02:14:20;;;;;;;1.98;1.73;;;3.30;99.90;;;;;;5075532;28;20322;-45
2021/01/24 02:16:48;;;;;;;1.75;1.65;;;3.30;99.90;;;;;;5075334;28;20285;-44
2021/01/24 02:19:22;;;;;;;2.60;2.38;;;3.20;99.90;;;;;;5075217;28;20684;-51
2021/01/24 02:21:52;;;;;;;2.72;2.22;;;3.10;99.90;;;;;;5075558;28;20317;-49
2021/01/24 02:24:23;;;;;;;2.15;1.80;;;3.10;99.90;;;;;;5075400;28;20211;-47
2021/01/24 02:27:02;;;;;;;1.75;1.50;;;3.00;99.90;;;;;;5075399;28;20303;-50
2021/01/24 02:29:39;;;;;;;1.80;1.70;;;3.00;99.90;;;;;;5075408;28;20219;-49
2021/01/24 02:32:09;;;;;;;2.33;1.83;;;3.00;99.90;;;;;;5075441;28;20207;-47
2021/01/24 02:34:39;;;;;;;2.38;1.95;;;3.00;99.90;;;;;;5075363;28;20208;-50
2021/01/24 02:37:07;;;;;;;1.85;1.75;;;2.90;99.90;;;;;;5075374;28;20235;-45
2021/01/24 02:39:35;;;;;;;1.92;1.73;;;2.90;99.90;;;;;;5075107;28;20223;-47
2021/01/24 02:42:02;;;;;;;1.65;1.55;;;2.90;99.90;;;;;;5075036;28;20590;-48
2021/01/24 02:44:31;;;;;;;1.52;1.42;;;2.90;99.90;;;;;;5074861;28;20211;-48
2021/01/24 02:46:59;;;;;;;1.52;1.42;;;2.90;99.90;;;;;;5074938;28;20302;-50
2021/01/24 02:49:29;;;;;;;1.95;1.70;;;2.90;99.90;;;;;;5074939;28;20731;-51
2021/01/24 02:51:58;;;;;;;2.10;2.00;;;2.80;99.90;;;;;;5074663;28;20207;-46
2021/01/24 02:54:26;;;;;;;1.83;1.40;;;2.80;99.90;;;;;;5074908;28;20261;-49
2021/01/24 02:56:53;;;;;;;1.67;1.40;;;2.80;99.90;;;;;;5074950;28;20711;-48
2021/01/24 02:59:21;;;;;;;2.22;1.70;;;2.80;99.90;;;;;;5075215;28;20218;-48
2021/01/24 03:01:48;;;;;;;1.48;1.40;;;2.80;99.90;;;;;;5074874;28;20322;-49
2021/01/24 03:04:15;;;;;;;2.00;1.80;;;2.80;99.90;;;;;;5074701;28;20628;-47
2021/01/24 03:06:44;;;;;;;1.40;1.30;;;2.80;99.90;;;;;;5074531;28;20203;-49
2021/01/24 03:09:11;;;;;;;2.13;1.90;;;2.80;99.90;;;;;;5074837;28;20214;-48
2021/01/24 03:11:43;;;;;;;1.40;1.30;;;2.70;99.90;;;;;;5074511;28;20563;-48
2021/01/24 03:14:16;;;;;;;1.38;1.27;;;2.70;99.90;;;;;;5074604;28;20782;-52
2021/01/24 03:16:45;;;;;;;1.45;1.35;;;2.70;99.90;;;;;;5074562;28;20294;-52
2021/01/24 03:19:15;;;;;;;7.25;3.67;;;2.70;99.90;;;;;;5074273;28;20302;-51
2021/01/24 03:21:45;;;;;;;1.58;1.48;;;2.70;99.90;;;;;;5074730;28;20579;-49
2021/01/24 03:24:14;;;;;;;1.60;1.40;;;2.70;99.90;;;;;;5074554;28;20580;-49
2021/01/24 03:26:42;;;;;;;4.65;2.45;;;2.70;99.90;;;;;;5074429;28;20242;-50
2021/01/24 03:29:09;;;;;;;1.85;1.67;;;2.80;99.90;;;;;;5074466;28;20210;-54
2021/01/24 03:31:38;;;;;;;1.80;1.65;;;2.80;99.90;;;;;;5074271;28;20286;-49
2021/01/24 03:34:12;;;;;;;2.00;1.48;;;2.80;99.90;;;;;;5074212;28;20207;-50
2021/01/24 03:36:39;;;;;;;1.75;1.65;;;2.80;99.90;;;;;;5074595;28;20248;-50
2021/01/24 03:39:06;;;;;;;2.08;1.42;;;2.80;99.90;;;;;;5074039;28;20273;-51
2021/01/24 03:41:33;;;;;;;1.55;1.42;;;2.80;99.90;;;;;;5073760;28;20241;-52
2021/01/24 03:44:00;;;;;;;1.40;1.30;;;2.90;99.90;;;;;;5074385;28;20298;-50
2021/01/24 03:46:28;;;;;;;6.68;3.92;;;2.90;99.90;;;;;;5073819;28;20280;-54
2021/01/24 03:48:56;;;;;;;3.17;1.55;;;2.90;99.90;;;;;;5073881;28;20249;-52
2021/01/24 03:51:41;;;;;;;1.98;1.30;;;2.80;99.90;;;;;;5074033;28;20212;-52
2021/01/24 03:54:09;;;;;;;1.60;1.50;;;2.80;99.90;;;;;;5073639;28;20646;-49
2021/01/24 03:56:36;;;;;;;1.00;1.00;;;2.80;99.90;;;;;;5073548;28;20262;-50
2021/01/24 03:59:03;;;;;;;2.47;1.25;;;2.70;99.90;;;;;;5073723;28;20294;-49
2021/01/24 04:01:30;;;;;;;2.50;1.98;;;2.70;99.90;;;;;;5073457;28;20769;-52
2021/01/24 04:03:57;;;;;;;1.20;1.10;;;2.60;99.90;;;;;;5073454;28;20314;-49
2021/01/24 04:06:24;;;;;;;1.27;1.17;;;2.60;99.90;;;;;;5073378;28;20253;-51
2021/01/24 04:08:52;;;;;;;1.25;1.15;;;2.60;99.90;;;;;;5073210;28;20207;-49
2021/01/24 04:11:19;;;;;;;1.60;1.30;;;2.60;99.90;;;;;;5073215;28;20212;-48
2021/01/24 04:13:47;;;;;;;1.50;1.17;;;2.70;99.90;;;;;;5072938;28;20241;-48
2021/01/24 04:16:14;;;;;;;1.10;1.00;;;2.70;99.90;;;;;;5073477;28;20215;-50
2021/01/24 04:18:42;;;;;;;2.17;1.10;;;2.70;99.90;;;;;;5073238;28;20258;-45
2021/01/24 04:21:09;;;;;;;1.10;1.00;;;2.70;99.90;;;;;;5072988;28;20315;-50
2021/01/24 04:23:36;;;;;;;1.52;1.38;;;2.70;99.90;;;;;;5072394;28;20499;-46
2021/01/24 04:26:03;;;;;;;1.50;1.20;;;2.80;99.90;;;;;;5072984;28;20321;-46
2021/01/24 04:28:31;;;;;;;0.90;0.90;;;2.80;99.90;;;;;;5073159;28;20731;-46
2021/01/24 04:30:58;;;;;;;1.02;1.02;;;2.80;99.90;;;;;;5073123;28;20323;-48
2021/01/24 04:33:25;;;;;;;2.10;1.80;;;2.80;99.90;;;;;;5073030;28;20211;-44
2021/01/24 04:35:52;;;;;;;1.08;0.98;;;2.90;99.90;;;;;;5072695;28;20298;-44
2021/01/24 04:38:19;;;;;;;1.25;1.10;;;2.90;99.90;;;;;;5072743;28;20290;-45
2021/01/24 04:40:46;;;;;;;1.10;1.00;;;2.90;99.90;;;;;;5072778;28;20246;-48
2021/01/24 04:43:13;;;;;;;0.85;0.85;;;2.90;99.90;;;;;;5072541;28;20318;-47
2021/01/24 04:45:42;;;;;;;0.90;0.90;;;3.00;99.90;;;;;;5072963;28;20231;-45
2021/01/24 04:48:10;;;;;;;1.13;1.00;;;3.00;99.90;;;;;;5073108;28;20551;-47
2021/01/24 04:50:38;;;;;;;1.20;0.88;;;3.10;99.90;;;;;;5072610;28;20215;-47
2021/01/24 04:53:06;;;;;;;1.15;1.05;;;3.10;99.90;;;;;;5072614;28;20624;-45
2021/01/24 04:55:34;;;;;;;0.90;0.90;;;3.10;99.90;;;;;;5072575;28;20302;-48
2021/01/24 04:58:02;;;;;;;1.08;1.02;;;3.10;99.90;;;;;;5072494;28;20231;-45
2021/01/24 05:00:29;;;;;;;1.48;1.38;;;3.10;99.90;;;;;;5072543;28;20235;-44
2021/01/24 05:02:57;;;;;;;1.50;1.40;;;3.10;99.90;;;;;;5072373;28;20310;-45
2021/01/24 05:05:24;;;;;;;1.60;1.50;;;3.00;99.90;;;;;;5072397;28;20249;-47
2021/01/24 05:07:52;;;;;;;1.65;1.55;;;3.00;99.90;;;;;;5072266;28;20250;-45
2021/01/24 05:10:27;;;;;;;1.38;1.08;;;2.90;99.90;;;;;;5072273;28;20298;-45
2021/01/24 05:12:54;;;;;;;1.00;1.00;;;2.90;99.90;;;;;;5072231;28;20202;-49
2021/01/24 05:15:22;;;;;;;1.15;1.10;;;2.80;99.90;;;;;;5072436;28;20262;-47
2021/01/24 05:17:54;;;;;;;1.70;1.00;;;2.80;99.90;;;;;;5072191;28;20300;-48
2021/01/24 05:20:23;;;;;;;2.35;1.60;;;2.90;99.90;;;;;;5072088;28;20226;-47
2021/01/24 05:22:51;;;;;;;1.10;1.00;;;2.90;99.90;;;;;;5072108;28;20237;-51
2021/01/24 05:25:20;;;;;;;1.52;1.05;;;2.90;99.90;;;;;;5072209;28;20320;-52
2021/01/24 05:27:48;;;;;;;0.90;0.90;;;2.80;99.90;;;;;;5072117;28;20290;-50
2021/01/24 05:30:21;;;;;;;1.10;1.00;;;2.60;99.90;;;;;;5072056;28;20218;-51
2021/01/24 05:32:52;;;;;;;1.02;0.93;;;2.50;99.90;;;;;;5072046;28;20203;-50
2021/01/24 05:35:19;;;;;;;1.80;1.25;;;2.40;99.90;;;;;;5071366;28;20214;-53
2021/01/24 05:37:47;;;;;;;1.35;1.20;;;2.40;99.90;;;;;;5072044;28;20328;-50
2021/01/24 05:40:16;;;;;;;1.00;1.00;;;2.30;99.90;;;;;;5072067;28;20230;-49
2021/01/24 05:42:45;;;;;;;1.67;1.30;;;2.30;99.90;;;;;;5071688;28;20223;-48
2021/01/24 05:45:14;;;;;;;1.00;1.00;;;2.30;99.90;;;;;;5071936;28;20299;-48
2021/01/24 05:47:42;;;;;;;1.20;1.08;;;2.30;99.90;;;;;;5072137;28;20286;-51
2021/01/24 05:50:11;;;;;;;0.80;0.80;;;2.40;99.90;;;;;;5072046;28;20204;-47
2021/01/24 05:52:40;;;;;;;1.38;1.05;;;2.40;99.90;;;;;;5071935;28;20235;-55
2021/01/24 05:55:10;;;;;;;1.10;1.00;;;2.40;99.90;;;;;;5071678;28;20238;-55
2021/01/24 05:57:39;;;;;;;0.90;0.90;;;2.30;99.90;;;;;;5071704;28;20211;-50
2021/01/24 06:00:08;;;;;;;1.20;1.05;;;2.30;99.90;;;;;;5071594;28;20563;-52
2021/01/24 06:02:37;;;;;;;0.98;0.98;;;2.30;99.90;;;;;;5071790;28;20275;-49
2021/01/24 06:05:06;;;;;;;0.80;0.80;;;2.20;99.90;;;;;;5071638;28;20215;-52
2021/01/24 06:07:34;;;;;;;0.80;0.80;;;2.10;99.90;;;;;;5071599;28;20282;-50
2021/01/24 06:10:02;;;;;;;2.10;1.13;;;2.00;99.90;;;;;;5071629;28;20294;-50
2021/01/24 06:12:31;;;;;;;1.08;1.00;;;2.00;99.90;;;;;;5071944;28;20200;-49
2021/01/24 06:15:03;;;;;;;0.80;0.80;;;1.90;99.90;;;;;;5071631;28;20324;-49
2021/01/24 06:17:36;;;;;;;4.50;2.85;;;1.90;99.90;;;;;;5071297;28;20755;-48
2021/01/24 06:20:06;;;;;;;1.20;1.10;;;1.90;99.90;;;;;;5071687;28;20278;-51
2021/01/24 06:22:41;;;;;;;1.00;0.90;;;1.90;99.90;;;;;;5071471;28;20238;-51
2021/01/24 06:25:15;;;;;;;1.17;1.02;;;1.80;99.90;;;;;;5071859;28;20217;-54
2021/01/24 06:27:53;;;;;;;1.20;1.10;;;1.80;99.90;;;;;;5071461;28;20575;-50
2021/01/24 06:30:23;;;;;;;1.10;1.08;;;1.80;99.90;;;;;;5071602;28;20292;-49
2021/01/24 06:32:50;;;;;;;1.33;1.23;;;1.80;99.90;;;;;;5071513;28;20204;-53
2021/01/24 06:35:20;;;;;;;1.30;1.10;;;1.70;99.90;;;;;;5071341;28;20207;-45
2021/01/24 06:37:52;;;;;;;2.00;1.35;;;1.70;99.90;;;;;;5071746;28;20235;-53
2021/01/24 06:40:24;;;;;;;1.30;1.20;;;1.70;99.90;;;;;;5071478;28;20242;-49
2021/01/24 06:42:57;;;;;;;1.75;1.60;;;1.70;99.90;;;;;;5071282;28;20227;-51
2021/01/24 06:45:44;;;;;;;1.70;1.45;;;1.60;99.90;;;;;;5072221;28;20212;-51
2021/01/24 06:48:15;;;;;;;1.67;1.58;;;1.60;99.90;;;;;;5075185;28;20214;-53
2021/01/24 06:50:45;;;;;;;1.67;1.33;;;1.50;99.90;;;;;;5075260;28;20207;-51
2021/01/24 06:53:14;;;;;;;2.05;1.85;;;1.50;99.90;;;;;;5074919;28;20433;-50
2021/01/24 06:55:53;;;;;;;2.05;1.90;;;1.40;99.90;;;;;;5074904;28;20211;-55
2021/01/24 06:58:28;;;;;;;2.05;1.85;;;1.40;99.90;;;;;;5074794;28;20294;-53
2021/01/24 07:01:21;;;;;;;2.10;1.90;;;1.40;99.90;;;;;;5074756;28;20250;-52
2021/01/24 07:03:48;;;;;;;2.00;1.90;;;1.30;99.90;;;;;;5074628;28;20207;-52
2021/01/24 07:06:31;;;;;;;1.73;1.63;;;1.30;99.90;;;;;;5074682;28;20216;-52
2021/01/24 07:08:59;;;;;;;1.95;1.85;;;1.30;99.90;;;;;;5074670;28;20294;-52
2021/01/24 07:11:51;;;;;;;1.83;1.73;;;1.30;99.90;;;;;;5074574;28;20211;-49
2021/01/24 07:14:46;;;;;;;1.75;1.65;;;1.30;99.90;;;;;;5074252;28;20245;-51
2021/01/24 07:17:16;;;;;;;2.42;1.90;;;1.30;99.90;;;;;;5061642;28;20219;-53
2021/01/24 07:19:45;;;;;;;2.05;1.75;;;1.20;99.90;;;;;;5074654;28;20214;-52
2021/01/24 07:22:14;;;;;;;2.65;2.00;;;1.20;99.90;;;;;;5074325;28;20351;-53
2021/01/24 07:24:42;;;;;;;2.05;1.80;;;1.20;99.90;;;;;;5074220;28;20665;-53
2021/01/24 07:27:10;;;;;;;7.05;4.22;;;1.10;99.90;;;;;;5074602;28;20290;-49
2021/01/24 07:29:38;;;;;;;2.88;2.20;;;1.20;99.90;;;;;;5074223;28;20692;-49
2021/01/24 07:32:07;;;;;;;3.87;2.50;;;1.20;99.90;;;;;;5074229;28;20207;-52
2021/01/24 07:34:35;;;;;;;2.67;2.38;;;1.20;99.90;;;;;;5074162;28;20203;-50
2021/01/24 07:37:04;;;;;;;2.60;2.40;;;1.30;99.90;;;;;;5073965;28;20310;-53
2021/01/24 07:39:32;;;;;;;1.92;1.80;;;1.30;99.90;;;;;;5073856;28;20207;-51
2021/01/24 07:42:00;;;;;;;2.65;2.45;;;1.30;99.90;;;;;;5073649;28;20263;-54
2021/01/24 07:44:27;;;;;;;2.45;2.10;;;1.30;99.90;;;;;;5073497;28;20243;-53
2021/01/24 07:46:54;;;;;;;2.63;2.40;;;1.30;99.90;;;;;;5073870;28;20298;-58
2021/01/24 07:49:23;;;;;;;2.40;2.20;;;1.30;99.90;;;;;;5073819;28;20211;-50
2021/01/24 07:51:50;;;;;;;2.30;2.10;;;1.30;99.90;;;;;;5073423;28;20696;-50
2021/01/24 07:54:18;;;;;;;2.00;1.90;;;1.30;99.90;;;;;;5073451;28;20570;-49
2021/01/24 07:56:45;;;;;;;2.40;1.98;;;1.30;99.90;;;;;;5072262;28;20684;-53
2021/01/24 07:59:13;;;;;;;2.65;2.42;;;1.30;99.90;;;;;;5073423;28;20263;-49
2021/01/24 08:01:40;;;;;;;2.47;2.28;;;1.30;99.90;;;;;;5073425;28;20619;-51
2021/01/24 08:04:08;;;;;;;2.88;2.67;;;1.30;99.90;;;;;;5073429;28;20211;-51
2021/01/24 08:06:37;;;;;;;3.22;2.97;;;1.30;99.90;;;;;;5073192;28;20294;-50
2021/01/24 08:09:05;;;;;;;2.53;2.33;;;1.40;99.90;;;;;;5073049;28;20211;-51
2021/01/24 08:11:33;;;;;;;3.03;2.45;;;1.40;99.90;;;;;;5073034;28;20746;-50
2021/01/24 08:14:01;;;;;;;3.35;2.70;;;1.40;99.90;;;;;;5073171;28;20281;-50
2021/01/24 08:16:33;;;;;;;2.22;2.00;;;1.40;99.90;;;;;;5073295;28;20226;-49
2021/01/24 08:19:02;;;;;;;3.88;3.20;;;1.50;99.90;;;;;;5073411;28;20207;-51
2021/01/24 08:21:31;;;;;;;4.07;2.53;;;1.50;99.90;;;;;;5072882;28;20249;-50
2021/01/24 08:24:00;;;;;;;3.00;2.70;;;1.50;99.90;;;;;;5073177;28;20290;-52
2021/01/24 08:26:28;;;;;;;2.33;1.90;;;1.60;99.90;;;;;;5073236;28;20290;-49
2021/01/24 08:28:55;;;;;;;2.83;2.60;;;1.60;99.90;;;;;;5073370;28;20241;-51
2021/01/24 08:31:23;;;;;;;2.97;2.67;;;1.70;99.90;;;;;;5072849;28;20231;-53
2021/01/24 08:33:52;;;;;;;12.07;9.55;;;1.70;99.90;;;;;;5073198;28;20207;-53
2021/01/24 08:36:21;;;;;;;2.55;2.35;;;1.70;99.90;;;;;;5072802;28;20766;-45
2021/01/24 08:38:50;;;;;;;2.60;2.40;;;1.70;99.90;;;;;;5073039;28;20294;-45
2021/01/24 08:41:18;;;;;;;5.82;4.80;;;1.80;99.90;;;;;;5072982;28;20298;-48
2021/01/24 08:43:45;;;;;;;6.60;4.93;;;1.80;99.90;;;;;;5072785;28;20231;-46
2021/01/24 08:46:23;;;;;;;2.88;2.53;;;1.80;99.90;;;;;;5072831;28;20231;-48
2021/01/24 08:49:01;;;;;;;3.50;3.00;;;1.90;99.90;;;;;;5072686;28;20687;-46
2021/01/24 08:51:53;;;;;;;3.53;2.50;;;1.90;99.90;;;;;;5072644;28;20211;-46
2021/01/24 08:54:31;;;;;;;4.03;2.53;;;1.90;99.90;;;;;;5067308;28;20638;-48
2021/01/24 08:57:11;;;;;;;2.20;2.00;;;2.00;99.90;;;;;;5072507;28;20301;-53
2021/01/24 08:59:57;;;;;;;2.88;2.50;;;2.00;99.90;;;;;;5072340;28;20672;-53
2021/01/24 09:02:28;;;;;;;4.22;2.10;;;2.00;99.90;;;;;;5072316;28;20230;-54
2021/01/24 09:04:56;;;;;;;2.53;2.25;;;1.90;99.90;;;;;;5072316;28;20203;-53
2021/01/24 09:07:23;;;;;;;2.50;2.30;;;1.90;99.90;;;;;;5072187;28;20211;-55
2021/01/24 09:09:53;;;;;;;2.95;2.75;;;1.90;99.90;;;;;;5072214;28;20216;-56
2021/01/24 09:12:22;;;;;;;2.45;2.25;;;1.90;99.90;;;;;;5072368;28;20207;-50
2021/01/24 09:14:49;;;;;;;2.88;2.67;;;1.90;99.90;;;;;;5072085;28;20263;-47
2021/01/24 09:17:17;;;;;;;3.08;2.13;;;1.90;99.90;;;;;;5072309;28;20223;-51
2021/01/24 09:19:46;;;;;;;5.13;2.90;;;1.80;99.90;;;;;;5072063;28;20208;-50
2021/01/24 09:22:15;;;;;;;3.25;2.20;;;1.90;99.90;;;;;;5072018;28;20322;-53
2021/01/24 09:24:43;;;;;;;2.95;2.67;;;1.80;99.90;;;;;;5072170;28;20229;-52
2021/01/24 09:27:12;;;;;;;11.25;7.55;;;1.90;99.90;;;;;;5072021;28;20223;-52
2021/01/24 09:29:42;;;;;;;3.53;3.17;;;1.90;99.90;;;;;;5071659;28;20238;-50
2021/01/24 09:32:09;;;;;;;2.80;2.42;;;2.00;99.90;;;;;;5071807;28;20569;-53
2021/01/24 09:34:37;;;;;;;5.03;2.88;;;2.00;99.90;;;;;;5072219;28;20207;-55
2021/01/24 09:37:05;;;;;;;2.80;2.58;;;2.00;99.90;;;;;;5072086;28;20295;-50
2021/01/24 09:39:32;;;;;;;3.20;2.65;;;2.00;99.90;;;;;;5071977;28;20247;-53
2021/01/24 09:41:59;;;;;;;3.03;2.42;;;2.00;99.90;;;;;;5072073;28;20363;-52
2021/01/24 09:44:26;;;;;;;4.75;3.13;;;2.10;99.90;;;;;;5071932;28;20353;-51
2021/01/24 09:46:54;;;;;;;2.60;2.40;;;2.10;99.90;;;;;;5071797;28;20261;-49
2021/01/24 09:49:21;;;;;;;4.40;3.63;;;2.20;99.30;;;;;;5072062;28;20215;-49
2021/01/24 09:51:48;;;;;;;2.88;2.47;;;2.20;99.10;;;;;;5071846;28;20233;-52
2021/01/24 09:54:17;;;;;;;4.18;2.35;;;2.20;98.80;;;;;;5071853;28;20258;-46
2021/01/24 09:56:44;;;;;;;2.90;2.60;;;2.20;99.00;;;;;;5071621;28;20250;-49
2021/01/24 09:59:13;;;;;;;2.95;2.20;;;2.20;98.90;;;;;;5071582;28;20298;-52
2021/01/24 10:01:40;;;;;;;3.33;2.95;;;2.20;98.80;;;;;;5071945;28;20397;-52
2021/01/24 10:04:08;;;;;;;3.83;2.70;;;2.20;98.80;;;;;;5071754;28;20261;-50
2021/01/24 10:06:35;;;;;;;3.00;2.63;;;2.20;98.60;;;;;;5071791;28;20547;-50
2021/01/24 10:09:04;;;;;;;3.15;2.60;;;2.30;98.60;;;;;;5071640;28;20298;-50
2021/01/24 10:11:31;;;;;;;3.60;2.80;;;2.30;98.40;;;;;;5071512;28;20222;-53
2021/01/24 10:13:58;;;;;;;3.03;2.67;;;2.30;98.70;;;;;;5071391;28;20276;-53
2021/01/24 10:16:25;;;;;;;3.20;2.92;;;2.40;98.80;;;;;;5071541;28;20612;-49
2021/01/24 10:18:52;;;;;;;2.70;2.50;;;2.40;98.50;;;;;;5071445;28;20264;-49
2021/01/24 10:21:20;;;;;;;2.67;2.47;;;2.40;98.50;;;;;;5074103;28;20306;-46
2021/01/24 10:23:47;;;;;;;2.72;2.53;;;2.40;98.20;;;;;;5075386;28;20223;-55
2021/01/24 10:26:14;;;;;;;2.95;2.50;;;2.40;98.10;;;;;;5075385;28;20218;-45
2021/01/24 10:28:42;;;;;;;3.80;2.88;;;2.40;98.30;;;;;;5075240;28;20657;-50
2021/01/24 10:31:09;;;;;;;3.43;3.10;;;2.50;98.60;;;;;;5075280;28;20243;-56
2021/01/24 10:33:36;;;;;;;2.90;2.55;;;2.50;98.20;;;;;;5075604;28;20210;-52
2021/01/24 10:36:05;;;;;;;2.85;2.55;;;2.50;98.20;;;;;;5075212;28;20765;-56
2021/01/24 10:38:33;;;;;;;3.55;2.90;;;2.60;98.10;;;;;;5075156;28;20211;-54
2021/01/24 10:41:00;;;;;;;4.38;2.53;;;2.60;97.90;;;;;;5074964;28;20286;-48
2021/01/24 10:43:27;;;;;;;2.85;2.30;;;2.60;97.80;;;;;;5074774;28;20656;-56
2021/01/24 10:45:55;;;;;;;2.92;2.60;;;2.70;97.80;;;;;;5075146;28;20286;-53
2021/01/24 10:48:22;;;;;;;2.75;2.50;;;2.70;97.90;;;;;;5074950;28;20218;-55
2021/01/24 10:50:49;;;;;;;2.55;2.33;;;2.80;97.90;;;;;;5074961;28;20204;-52
2021/01/24 10:53:16;;;;;;;2.72;2.53;;;2.90;97.70;;;;;;5074829;28;20253;-55
2021/01/24 10:55:44;;;;;;;2.17;1.98;;;2.90;97.20;;;;;;5074730;28;20294;-54
2021/01/24 10:58:10;;;;;;;3.17;2.35;;;2.90;97.50;;;;;;5074876;28;20305;-45
2021/01/24 11:00:38;;;;;;;4.10;3.00;;;3.00;97.40;;;;;;5074785;28;20284;-51
2021/01/24 11:03:05;;;;;;;2.75;2.42;;;3.00;97.40;;;;;;5074527;28;20231;-50
2021/01/24 11:05:33;;;;;;;3.15;2.38;;;3.10;97.10;;;;;;5074574;28;20207;-54
2021/01/24 11:08:00;;;;;;;4.55;2.55;;;3.10;97.00;;;;;;5074318;28;20299;-55
2021/01/24 11:10:27;;;;;;;2.58;2.38;;;3.10;97.00;;;;;;5074273;28;20212;-53
2021/01/24 11:12:55;;;;;;;4.43;2.65;;;3.10;97.00;;;;;;5074364;28;20203;-57
2021/01/24 11:15:22;;;;;;;2.97;2.30;;;3.20;97.00;;;;;;5074596;28;20213;-56
2021/01/24 11:17:49;;;;;;;4.00;2.50;;;3.30;97.00;;;;;;5074368;28;20290;-58
2021/01/24 11:20:18;;;;;;;4.03;3.63;;;3.50;96.70;;;;;;5074481;28;20215;-58
2021/01/24 11:22:45;;;;;;;5.22;2.33;;;3.70;96.50;;;;;;5074162;28;20236;-57
2021/01/24 11:25:13;;;;;;;4.22;2.20;;;3.80;95.70;;;;;;5074528;28;20207;-55
2021/01/24 11:27:41;;;;;;;2.50;1.92;;;3.80;95.70;;;;;;5074287;28;20225;-56
2021/01/24 11:30:11;;;;;;;3.42;2.28;;;3.80;95.50;;;;;;5074408;28;20222;-54
2021/01/24 11:32:38;;;;;;;7.72;4.20;;;3.80;95.30;;;;;;5073988;28;20199;-57
2021/01/24 11:35:10;;;;;;;5.67;3.10;;;3.70;95.40;;;;;;5074206;28;20207;-57
2021/01/24 11:37:38;;;;;;;6.20;3.85;;;3.60;95.60;;;;;;5074147;28;20261;-53
2021/01/24 11:40:07;;;;;;;2.47;2.22;;;3.50;95.50;;;;;;5073920;28;20302;-55
2021/01/24 11:42:35;;;;;;;2.63;2.20;;;3.40;95.80;;;;;;5073771;28;20314;-57
2021/01/24 11:45:03;;;;;;;5.15;3.60;;;3.50;96.00;;;;;;5073620;28;20618;-55
2021/01/24 11:47:33;;;;;;;3.03;2.72;;;3.50;95.70;;;;;;5073588;28;20302;-57
2021/01/24 11:50:00;;;;;;;2.50;2.30;;;3.50;95.50;;;;;;5073606;28;20210;-58
2021/01/24 11:52:27;;;;;;;2.58;2.38;;;3.60;95.50;;;;;;5073708;28;20210;-56
2021/01/24 11:54:54;;;;;;;3.33;3.03;;;3.60;95.20;;;;;;5073634;28;20209;-58
2021/01/24 11:57:21;;;;;;;2.78;2.33;;;3.60;95.40;;;;;;5073535;28;20217;-56
2021/01/24 11:59:48;;;;;;;4.00;3.35;;;3.70;95.30;;;;;;5073516;28;20211;-56
2021/01/24 12:02:15;;;;;;;4.38;3.00;;;3.90;95.30;;;;;;5073938;28;20233;-54
2021/01/24 12:04:43;;;;;;;6.85;4.72;;;4.00;94.90;;;;;;5073689;28;20207;-56
2021/01/24 12:07:13;;;;;;;3.28;2.97;;;4.10;94.50;;;;;;5073359;28;20214;-53
2021/01/24 12:09:40;;;;;;;2.80;2.50;;;4.20;94.70;;;;;;5073211;28;20302;-51
2021/01/24 12:12:08;;;;;;;2.83;2.35;;;4.40;94.10;;;;;;5073338;28;20401;-55
2021/01/24 12:14:35;;;;;;;2.80;2.50;;;4.50;94.00;;;;;;5072974;28;20267;-51
2021/01/24 12:17:02;;;;;;;4.82;2.33;;;4.50;93.50;;;;;;5073355;28;20218;-53
2021/01/24 12:19:29;;;;;;;3.70;2.83;;;4.50;93.60;;;;;;5073029;28;20746;-53
2021/01/24 12:21:57;;;;;;;2.53;2.25;;;4.50;93.60;;;;;;5073286;28;20292;-53
2021/01/24 12:24:24;;;;;;;3.47;2.33;;;4.40;93.60;;;;;;5073242;28;20333;-50
2021/01/24 12:26:51;;;;;;;4.28;3.88;;;4.30;93.50;;;;;;5073127;28;20207;-52
2021/01/24 12:29:18;;;;;;;3.97;3.35;;;4.10;93.80;;;;;;5073090;28;20218;-48
2021/01/24 12:31:45;;;;;;;3.15;2.50;;;4.10;94.10;;;;;;5073213;28;20226;-48
2021/01/24 12:34:13;;;;;;;5.63;3.38;;;4.10;93.80;;;;;;5072889;28;20730;-53
2021/01/24 12:36:40;;;;;;;3.75;2.97;;;4.00;94.00;;;;;;5073071;28;20363;-50
2021/01/24 12:39:10;;;;;;;3.80;2.63;;;3.90;94.10;;;;;;5072669;28;20217;-52
2021/01/24 12:41:37;;;;;;;2.60;2.17;;;3.80;94.20;;;;;;5072018;28;20214;-53
2021/01/24 12:44:05;;;;;;;4.63;3.35;;;3.60;94.30;;;;;;5071884;28;20720;-52
2021/01/24 12:46:32;;;;;;;5.60;4.95;;;3.50;94.80;;;;;;5072651;28;20208;-52
2021/01/24 12:48:59;;;;;;;3.97;3.50;;;3.50;94.80;;;;;;5072637;28;20556;-52
2021/01/24 12:51:27;;;;;;;3.88;3.45;;;3.50;94.70;;;;;;5072740;28;20210;-53
2021/01/24 12:53:54;;;;;;;4.45;3.08;;;3.60;94.70;;;;;;5072737;28;20310;-53
2021/01/24 12:56:21;;;;;;;3.20;2.90;;;3.60;94.90;;;;;;5072425;28;20209;-54
2021/01/24 12:58:48;;;;;;;3.22;2.85;;;3.60;94.80;;;;;;5072761;28;20265;-53
2021/01/24 13:01:16;;;;;;;3.47;2.75;;;3.70;95.20;;;;;;5072232;28;20247;-52
2021/01/24 13:03:43;;;;;;;3.55;2.97;;;3.80;94.60;;;;;;5072107;28;20222;-53
2021/01/24 13:06:10;;;;;;;4.88;3.28;;;3.80;94.40;;;;;;5072206;28;20610;-55